createdAt,value
2022-12-05T00:01:42.760Z,11.40
2022-12-05T00:04:45.433Z,11.43
2022-12-05T00:07:48.083Z,10.68
2022-12-05T00:10:50.443Z,10.30
2022-12-05T00:13:54.503Z,9.82
2022-12-05T00:16:56.845Z,9.75
2022-12-05T00:19:59.622Z,8.70
2022-12-05T00:23:02.363Z,7.70
2022-12-05T00:26:05.536Z,5.72
2022-12-05T00:29:07.908Z,5.45
2022-12-05T00:32:10.275Z,5.95
2022-12-05T00:35:12.785Z,8.73
2022-12-05T00:38:15.044Z,9.10
2022-12-05T00:41:19.808Z,8.77
2022-12-05T00:44:22.200Z,8.80
2022-12-05T00:47:24.466Z,8.20
2022-12-05T00:50:26.899Z,6.73
2022-12-05T00:53:29.342Z,6.45
2022-12-05T00:56:32.807Z,6.68
2022-12-05T00:59:35.101Z,5.47
2022-12-05T01:02:38.315Z,5.28
2022-12-05T01:05:40.601Z,5.13
2022-12-05T01:08:43.511Z,4.72
2022-12-05T01:11:45.836Z,4.40
2022-12-05T01:14:48.636Z,4.20
2022-12-05T01:17:50.930Z,3.53
2022-12-05T01:20:53.892Z,4.63
2022-12-05T01:23:56.804Z,4.43
2022-12-05T01:26:59.183Z,5.10
2022-12-05T01:30:01.660Z,4.75
2022-12-05T01:33:04.010Z,4.85
2022-12-05T01:36:11.553Z,4.00
2022-12-05T01:39:14.218Z,4.30
2022-12-05T01:42:16.421Z,4.40
2022-12-05T01:45:26.090Z,4.18
2022-12-05T01:48:35.417Z,4.85
2022-12-05T01:51:39.778Z,4.40
2022-12-05T01:54:44.245Z,5.07
2022-12-05T01:57:47.871Z,4.38
2022-12-05T02:00:50.406Z,4.90
2022-12-05T02:03:56.346Z,4.50
2022-12-05T02:06:58.592Z,4.33
2022-12-05T02:10:01.040Z,5.35
2022-12-05T02:13:14.358Z,5.05
2022-12-05T02:16:38.544Z,4.60
2022-12-05T02:20:00.714Z,4.80
2022-12-05T02:23:15.392Z,4.37
2022-12-05T02:26:26.898Z,3.92
2022-12-05T02:29:53.684Z,5.88
2022-12-05T02:33:30.840Z,6.25
2022-12-05T02:36:57.188Z,4.85
2022-12-05T02:40:46.655Z,5.37
2022-12-05T02:44:05.272Z,5.28
2022-12-05T02:47:09.035Z,3.97
2022-12-05T02:50:14.711Z,5.18
2022-12-05T02:53:18.047Z,4.50
2022-12-05T02:56:20.625Z,3.63
2022-12-05T02:59:23.670Z,4.63
2022-12-05T03:02:31.941Z,5.32
2022-12-05T03:05:40.171Z,4.78
2022-12-05T03:08:49.540Z,4.20
2022-12-05T03:12:27.632Z,4.20
2022-12-05T03:15:37.014Z,3.72
2022-12-05T03:18:46.709Z,4.43
2022-12-05T03:21:53.388Z,4.78
2022-12-05T03:24:55.887Z,5.63
2022-12-05T03:28:24.715Z,5.17
2022-12-05T03:31:38.270Z,4.43
2022-12-05T03:34:47.606Z,4.32
2022-12-05T03:37:58.257Z,4.07
2022-12-05T03:41:10.201Z,4.82
2022-12-05T03:44:47.957Z,4.13
2022-12-05T03:48:00.271Z,4.68
2022-12-05T03:51:04.197Z,4.60
2022-12-05T03:54:10.593Z,4.43
2022-12-05T03:57:23.251Z,4.20
2022-12-05T04:00:26.273Z,3.73
2022-12-05T04:03:43.209Z,4.38
2022-12-05T04:06:47.491Z,4.43
2022-12-05T04:09:54.262Z,4.38
2022-12-05T04:12:58.783Z,4.88
2022-12-05T04:16:38.097Z,4.47
2022-12-05T04:19:59.340Z,4.60
2022-12-05T04:23:02.738Z,5.60
2022-12-05T04:26:21.731Z,4.32
2022-12-05T04:29:32.368Z,5.05
2022-12-05T04:32:39.980Z,4.70
2022-12-05T04:35:45.163Z,4.45
2022-12-05T04:39:05.627Z,5.88
2022-12-05T04:42:12.112Z,5.40
2022-12-05T04:45:16.967Z,4.97
2022-12-05T04:48:20.025Z,4.70
2022-12-05T04:51:26.005Z,4.72
2022-12-05T04:54:31.927Z,6.13
2022-12-05T04:57:38.080Z,5.65
2022-12-05T05:01:10.970Z,5.30
2022-12-05T05:04:22.097Z,5.03
2022-12-05T05:07:24.387Z,4.60
2022-12-05T05:10:40.063Z,4.72
2022-12-05T05:13:42.341Z,4.90
2022-12-05T05:16:44.955Z,5.13
2022-12-05T05:19:47.271Z,4.97
2022-12-05T05:22:53.781Z,6.90
2022-12-05T05:25:56.451Z,5.40
2022-12-05T05:28:59.115Z,5.50
2022-12-05T05:32:01.489Z,5.00
2022-12-05T05:35:03.938Z,5.73
2022-12-05T05:38:06.374Z,5.35
2022-12-05T05:41:35.968Z,6.03
2022-12-05T05:44:38.266Z,6.20
2022-12-05T05:47:40.929Z,6.05
2022-12-05T05:50:52.790Z,6.53
2022-12-05T05:53:56.025Z,6.18
2022-12-05T05:56:58.304Z,6.32
2022-12-05T06:00:01.078Z,6.93
2022-12-05T06:03:03.641Z,6.80
2022-12-05T06:06:08.820Z,6.17
2022-12-05T06:09:11.245Z,5.63
2022-12-05T06:12:13.536Z,6.20
2022-12-05T06:15:15.927Z,6.13
2022-12-05T06:18:18.300Z,5.45
2022-12-05T06:21:21.579Z,6.80
2022-12-05T06:24:24.241Z,5.55
2022-12-05T06:27:29.604Z,7.35
2022-12-05T06:30:31.861Z,5.88
2022-12-05T06:33:34.214Z,6.18
2022-12-05T06:36:36.691Z,6.17
2022-12-05T06:39:39.606Z,6.07
2022-12-05T06:42:41.889Z,6.90
2022-12-05T06:45:44.214Z,6.13
2022-12-05T06:48:46.965Z,6.10
2022-12-05T06:51:49.327Z,7.53
2022-12-05T06:54:52.687Z,6.97
2022-12-05T06:57:55.017Z,7.45
2022-12-05T07:01:15.880Z,7.60
2022-12-05T07:04:20.763Z,7.65
2022-12-05T07:07:23.170Z,7.93
2022-12-05T07:10:25.436Z,7.20
2022-12-05T07:13:27.802Z,8.30
2022-12-05T07:16:30.518Z,7.78
2022-12-05T07:19:32.802Z,7.57
2022-12-05T07:22:36.634Z,7.70
2022-12-05T07:25:40.366Z,5.90
2022-12-05T07:28:42.844Z,8.10
2022-12-05T07:31:45.220Z,5.38
2022-12-05T07:34:52.112Z,6.90
2022-12-05T07:37:57.238Z,6.80
2022-12-05T07:40:59.648Z,5.75
2022-12-05T07:44:01.942Z,7.18
2022-12-05T07:47:04.343Z,6.70
2022-12-05T07:50:07.141Z,6.28
2022-12-05T07:53:09.625Z,6.37
2022-12-05T07:56:16.894Z,6.00
2022-12-05T07:59:19.320Z,4.95
2022-12-05T08:02:21.676Z,5.95
2022-12-05T08:05:23.991Z,5.57
2022-12-05T08:08:26.202Z,5.37
2022-12-05T08:11:31.065Z,5.63
2022-12-05T08:14:33.459Z,7.60
2022-12-05T08:17:35.875Z,5.75
2022-12-05T08:20:38.285Z,6.95
2022-12-05T08:23:41.041Z,6.57
2022-12-05T08:26:43.500Z,6.80
2022-12-05T08:29:45.997Z,8.20
2022-12-05T08:32:48.300Z,6.20
2022-12-05T08:35:50.557Z,6.32
2022-12-05T08:38:57.125Z,7.10
2022-12-05T08:41:59.548Z,6.55
2022-12-05T08:45:01.844Z,6.57
2022-12-05T08:48:04.241Z,6.65
2022-12-05T08:51:09.112Z,6.28
2022-12-05T08:54:11.775Z,5.10
2022-12-05T08:57:14.160Z,5.57
2022-12-05T09:00:17.292Z,5.65
2022-12-05T09:03:19.542Z,6.30
2022-12-05T09:06:23.844Z,6.65
2022-12-05T09:09:26.211Z,6.10
2022-12-05T09:12:28.434Z,6.50
2022-12-05T09:15:31.694Z,6.57
2022-12-05T09:18:34.132Z,5.93
2022-12-05T09:21:36.459Z,5.75
2022-12-05T09:24:38.689Z,6.07
2022-12-05T09:27:41.000Z,7.13
2022-12-05T09:30:43.881Z,6.80
2022-12-05T09:33:47.071Z,6.40
2022-12-05T09:37:01.331Z,6.68
2022-12-05T09:40:17.468Z,6.43
2022-12-05T09:43:26.456Z,6.80
2022-12-05T09:46:44.521Z,6.72
2022-12-05T09:49:50.955Z,6.70
2022-12-05T09:53:14.145Z,6.28
2022-12-05T09:56:27.498Z,6.67
2022-12-05T09:59:29.914Z,7.10
2022-12-05T10:03:07.630Z,8.60
2022-12-05T10:06:17.755Z,8.25
2022-12-05T10:09:30.854Z,7.10
2022-12-05T10:12:39.040Z,7.77
2022-12-05T10:15:48.845Z,7.43
2022-12-05T10:18:59.215Z,7.13
2022-12-05T10:22:13.693Z,8.82
2022-12-05T10:25:21.509Z,7.18
2022-12-05T10:28:33.941Z,7.10
2022-12-05T10:31:38.283Z,6.50
2022-12-05T10:34:42.558Z,6.45
2022-12-05T10:37:50.062Z,7.53
2022-12-05T10:40:55.092Z,7.38
2022-12-05T10:43:58.090Z,7.73
2022-12-05T10:47:01.839Z,6.85
2022-12-05T10:50:08.476Z,6.80
2022-12-05T10:53:17.587Z,7.15
2022-12-05T10:56:42.670Z,7.40
2022-12-05T10:59:46.980Z,6.20
2022-12-05T11:02:49.991Z,6.90
2022-12-05T11:05:58.075Z,7.00
2022-12-05T11:09:13.906Z,7.25
2022-12-05T11:12:22.690Z,8.93
2022-12-05T11:15:28.323Z,7.03
2022-12-05T11:18:35.104Z,6.47
2022-12-05T11:21:44.182Z,7.63
2022-12-05T11:24:46.506Z,6.68
2022-12-05T11:27:48.765Z,6.72
2022-12-05T11:31:12.473Z,7.90
2022-12-05T11:34:24.693Z,8.18
2022-12-05T11:37:38.254Z,8.98
2022-12-05T11:41:23.941Z,8.48
2022-12-05T11:44:40.892Z,8.70
2022-12-05T11:48:31.208Z,8.30
2022-12-05T11:51:59.633Z,8.68
2022-12-05T11:55:22.186Z,8.63
2022-12-05T11:58:42.165Z,8.27
2022-12-05T12:01:47.545Z,9.40
2022-12-05T12:05:14.698Z,7.53
2022-12-05T12:08:25.306Z,8.43
2022-12-05T12:11:49.472Z,9.43
2022-12-05T12:15:04.126Z,9.20
2022-12-05T12:18:14.275Z,9.15
2022-12-05T12:21:20.873Z,8.50
2022-12-05T12:24:27.702Z,10.43
2022-12-05T12:27:35.847Z,9.18
2022-12-05T12:31:20.970Z,9.48
2022-12-05T12:34:50.955Z,11.30
2022-12-05T12:38:18.117Z,11.73
2022-12-05T12:41:46.461Z,12.77
2022-12-05T12:45:11.058Z,11.20
2022-12-05T12:48:30.177Z,13.00
2022-12-05T12:51:33.631Z,13.88
2022-12-05T12:55:03.807Z,15.27
2022-12-05T12:58:22.748Z,13.25
2022-12-05T13:01:42.256Z,12.15
2022-12-05T13:04:52.986Z,11.95
2022-12-05T13:07:59.517Z,12.10
2022-12-05T13:11:05.368Z,12.83
2022-12-05T13:14:13.650Z,12.18
2022-12-05T13:17:19.765Z,11.77
2022-12-05T13:20:23.291Z,13.52
2022-12-05T13:23:36.841Z,12.32
2022-12-05T13:26:46.157Z,11.57
2022-12-05T13:29:57.687Z,10.68
2022-12-05T13:33:06.421Z,10.15
2022-12-05T13:36:31.990Z,9.95
2022-12-05T13:39:52.886Z,9.23
2022-12-05T13:43:03.016Z,10.27
2022-12-05T13:46:08.374Z,9.07
2022-12-05T13:49:22.873Z,9.45
2022-12-05T13:52:27.468Z,9.13
2022-12-05T13:55:35.999Z,8.80
2022-12-05T13:58:46.492Z,8.50
2022-12-05T14:01:55.740Z,8.90
2022-12-05T14:04:58.747Z,9.00
2022-12-05T14:08:39.163Z,9.10
2022-12-05T14:12:10.197Z,9.10
2022-12-05T14:15:27.781Z,8.87
2022-12-05T14:18:42.011Z,8.82
2022-12-05T14:22:06.785Z,9.43
2022-12-05T14:25:57.652Z,8.95
2022-12-05T14:29:22.618Z,8.43
2022-12-05T14:32:39.171Z,9.27
2022-12-05T14:35:46.479Z,10.38
2022-12-05T14:38:48.872Z,9.68
2022-12-05T14:41:59.864Z,9.32
2022-12-05T14:45:17.295Z,10.85
2022-12-05T14:48:47.650Z,8.87
2022-12-05T14:51:57.827Z,10.80
2022-12-05T14:55:12.690Z,10.32
2022-12-05T14:58:20.477Z,11.95
2022-12-05T15:01:29.846Z,10.32
2022-12-05T15:04:56.084Z,10.17
2022-12-05T15:08:00.759Z,9.40
2022-12-05T15:11:03.847Z,9.88
2022-12-05T15:14:31.185Z,8.75
2022-12-05T15:17:55.259Z,9.23
2022-12-05T15:21:02.206Z,8.53
2022-12-05T15:24:17.304Z,10.35
2022-12-05T15:27:20.496Z,9.23
2022-12-05T15:30:22.882Z,8.52
2022-12-05T15:33:26.527Z,8.40
2022-12-05T15:36:34.676Z,8.53
2022-12-05T15:40:06.103Z,7.55
2022-12-05T15:43:27.499Z,7.55
2022-12-05T15:46:29.978Z,7.20
2022-12-05T15:49:32.383Z,6.78
2022-12-05T15:52:56.849Z,7.10
2022-12-05T15:56:16.256Z,7.65
2022-12-05T15:59:37.805Z,8.45
2022-12-05T16:02:47.814Z,7.60
2022-12-05T16:06:01.680Z,8.73
2022-12-05T16:09:11.821Z,10.37
2022-12-05T16:12:33.562Z,9.43
2022-12-05T16:15:35.881Z,9.50
2022-12-05T16:18:38.714Z,7.40
2022-12-05T16:21:46.619Z,7.32
2022-12-05T16:25:04.743Z,7.63
2022-12-05T16:28:11.303Z,7.70
2022-12-05T16:31:16.657Z,8.15
2022-12-05T16:34:19.124Z,10.15
2022-12-05T16:37:29.146Z,8.98
2022-12-05T16:40:31.536Z,7.20
2022-12-05T16:43:33.825Z,7.47
2022-12-05T16:46:39.241Z,8.05
2022-12-05T16:49:45.987Z,7.93
2022-12-05T16:52:48.800Z,7.90
2022-12-05T16:55:51.199Z,8.50
2022-12-05T16:58:54.056Z,7.90
2022-12-05T17:01:56.405Z,7.30
2022-12-05T17:05:00.076Z,7.07
2022-12-05T17:08:02.550Z,6.55
2022-12-05T17:11:07.799Z,7.47
2022-12-05T17:14:14.196Z,7.35
2022-12-05T17:17:18.376Z,9.32
2022-12-05T17:20:20.694Z,7.35
2022-12-05T17:23:23.108Z,7.07
2022-12-05T17:26:25.548Z,7.43
2022-12-05T17:29:32.476Z,7.40
2022-12-05T17:32:37.645Z,6.85
2022-12-05T17:35:40.093Z,7.22
2022-12-05T17:38:43.326Z,7.25
2022-12-05T17:41:45.710Z,7.93
2022-12-05T17:44:48.054Z,7.35
2022-12-05T17:47:51.956Z,8.70
2022-12-05T17:50:57.926Z,9.40
2022-12-05T17:54:00.150Z,12.32
2022-12-05T17:57:02.404Z,12.57
2022-12-05T18:00:05.477Z,17.60
2022-12-05T18:03:14.823Z,16.23
2022-12-05T18:06:18.103Z,9.63
2022-12-05T18:09:20.456Z,8.60
2022-12-05T18:12:22.883Z,8.40
2022-12-05T18:15:25.255Z,9.95
2022-12-05T18:18:29.384Z,8.05
2022-12-05T18:21:31.822Z,7.70
2022-12-05T18:24:34.142Z,7.28
2022-12-05T18:27:36.903Z,7.43
2022-12-05T18:30:39.287Z,7.43
2022-12-05T18:33:45.853Z,6.72
2022-12-05T18:36:48.219Z,6.95
2022-12-05T18:39:50.468Z,7.53
2022-12-05T18:42:52.821Z,7.57
2022-12-05T18:45:58.805Z,6.75
2022-12-05T18:49:03.470Z,6.78
2022-12-05T18:52:06.439Z,6.80
2022-12-05T18:55:17.246Z,6.93
2022-12-05T18:58:20.053Z,6.73
2022-12-05T19:01:22.585Z,7.03
2022-12-05T19:04:25.009Z,7.18
2022-12-05T19:07:27.518Z,6.10
2022-12-05T19:10:30.207Z,7.05
2022-12-05T19:13:32.676Z,7.80
2022-12-05T19:16:35.761Z,8.70
2022-12-05T19:19:38.126Z,6.80
2022-12-05T19:22:40.602Z,6.70
2022-12-05T19:25:42.871Z,6.88
2022-12-05T19:28:45.206Z,18.90
2022-12-05T19:31:47.656Z,36.63
2022-12-05T19:34:51.412Z,73.50
2022-12-05T19:37:55.124Z,24.15
2022-12-05T19:40:57.455Z,21.70
2022-12-05T19:44:01.665Z,9.93
2022-12-05T19:47:03.960Z,10.95
2022-12-05T19:50:06.877Z,10.70
2022-12-05T19:53:12.307Z,11.10
2022-12-05T19:56:18.916Z,11.43
2022-12-05T19:59:22.057Z,11.07
2022-12-05T20:02:25.415Z,10.88
2022-12-05T20:05:29.980Z,9.95
2022-12-05T20:08:33.596Z,10.55
2022-12-05T20:11:38.581Z,10.23
2022-12-05T20:14:40.866Z,10.43
2022-12-05T20:17:43.136Z,10.00
2022-12-05T20:20:45.434Z,11.73
2022-12-05T20:23:47.910Z,11.35
2022-12-05T20:26:50.473Z,12.88
2022-12-05T20:29:52.789Z,12.73
2022-12-05T20:32:55.074Z,11.85
2022-12-05T20:36:04.184Z,12.15
2022-12-05T20:39:09.161Z,12.27
2022-12-05T20:42:11.538Z,11.55
2022-12-05T20:45:13.967Z,13.03
2022-12-05T20:48:16.357Z,12.68
2022-12-05T20:51:23.771Z,12.68
2022-12-05T20:54:26.120Z,11.80
2022-12-05T20:57:28.404Z,11.20
2022-12-05T21:00:30.708Z,11.60
2022-12-05T21:03:33.486Z,11.05
2022-12-05T21:06:38.200Z,10.70
2022-12-05T21:09:40.495Z,12.02
2022-12-05T21:12:42.746Z,10.50
2022-12-05T21:15:45.388Z,10.93
2022-12-05T21:18:48.173Z,10.77
2022-12-05T21:21:50.549Z,10.55
2022-12-05T21:24:52.764Z,10.52
2022-12-05T21:27:55.315Z,10.98
2022-12-05T21:31:15.356Z,11.13
2022-12-05T21:34:22.168Z,10.10
2022-12-05T21:37:24.479Z,10.98
2022-12-05T21:40:27.119Z,10.07
2022-12-05T21:43:29.771Z,9.73
2022-12-05T21:46:32.161Z,9.73
2022-12-05T21:49:34.485Z,8.68
2022-12-05T21:52:40.597Z,9.10
2022-12-05T21:55:43.655Z,8.65
2022-12-05T21:58:46.658Z,7.80
2022-12-05T22:01:49.909Z,8.50
2022-12-05T22:04:52.321Z,7.82
2022-12-05T22:07:54.679Z,7.97
2022-12-05T22:11:03.811Z,8.57
2022-12-05T22:14:06.180Z,7.60
2022-12-05T22:17:08.462Z,8.17
2022-12-05T22:20:10.857Z,7.97
2022-12-05T22:23:16.784Z,7.00
2022-12-05T22:26:21.415Z,6.78
2022-12-05T22:29:23.920Z,7.10
2022-12-05T22:32:26.192Z,7.00
2022-12-05T22:35:28.459Z,7.22
2022-12-05T22:38:33.311Z,7.65
2022-12-05T22:41:35.830Z,7.50
2022-12-05T22:44:38.103Z,7.13
2022-12-05T22:47:40.387Z,8.33
2022-12-05T22:50:50.352Z,7.85
2022-12-05T22:53:53.367Z,7.47
2022-12-05T22:56:55.987Z,8.40
2022-12-05T22:59:58.514Z,8.38
2022-12-05T23:03:01.080Z,8.40
2022-12-05T23:06:09.777Z,8.20
2022-12-05T23:09:14.557Z,8.98
2022-12-05T23:12:16.836Z,9.35
2022-12-05T23:15:19.217Z,9.85
2022-12-05T23:18:21.519Z,9.70
2022-12-05T23:21:35.836Z,9.77
2022-12-05T23:24:38.204Z,9.98
2022-12-05T23:27:40.828Z,9.18
2022-12-05T23:30:43.177Z,10.73
2022-12-05T23:33:48.546Z,10.53
2022-12-05T23:36:53.427Z,9.75
2022-12-05T23:39:55.719Z,10.27
2022-12-05T23:42:59.795Z,9.65
2022-12-05T23:46:03.416Z,10.25
2022-12-05T23:49:05.730Z,10.87
2022-12-05T23:52:08.176Z,10.95
2022-12-05T23:55:10.435Z,10.52
2022-12-05T23:58:12.696Z,9.80
